Aérodrome :
LOGIN :

S'inscrire | Disclaimer

   EN    FR    IT 

 










Légende :    VFR   VFR Marginal   IFR   IFR Intensif   IFR Très Intensif
Visi : 
Plafond : 
>= 8 km
>= 3000ft
5 à 8 km
1000 à 3000 ft
1500m à 5 km
500 à 1000 ft
800 à 1500m
200 à 500 ft
< 800m
< 200 ft
Symboles :   Orages  Brouillard  Fortes neiges  Fortes précipitations  Vent > 20 kt
SIGMETs :   Divers  Orages  Givrage  Turbulence  Onde Orograph.  Cendres Volcan.






- Altitude de l'aérodrome : 274 ft
- Code IATA : PUY


LDPL - Pula

DERNIER METAR :
  • 140830Z 04004KT 9999 FEW045 13/08 Q1008 BECMG 08009KT

METARs EXPIRÉS :
  • 140800Z 05007KT 9999 FEW045 12/07 Q1008 BECMG 08009KT
  • 140730Z 05007KT 9999 FEW040 11/07 Q1008 BECMG 08009KT
  • 140700Z 04007KT 9999 FEW055 10/07 Q1008 NOSIG
  • 140630Z 04007KT 9999 FEW050 09/07 Q1008 NOSIG
  • 140600Z 04008KT CAVOK 09/07 Q1008 NOSIG

TAF TAF LDPL
Valide du 14 à 06h jusqu'au 15 à 06h UTC


140525Z 1406/1506 03006KT 9999 SCT040 TX15/1413Z TN08/1406Z
BECMG 1407/1409 08009KT
PROB40
TEMPO 1415/1506 4000 SHRA SCT020TCU BKN030
BECMG 1422/1500 13015KT



MET'MAP, la Météo Aéronautique d'un coup d'oeil ! - Copyright ORBIFLY Décembre 2007 - Disclaimer

ORBIFLY MET'MAP TEAM :

Programmation & Développement : Alexandra Zaïnal
Conception & Développement : Baudouin d'Aumeries
Co-Programmation & Développement : Marc-Olivier Méhu
Soutien technique & logistique : Manuel Goepfert

Contact : metmap@orbifly.com




SOURCES & CREDITS :

   NOAA